Time;durP1;ratioP1;P1;durP2;ratioP2;P2;SDS_P1;SDS_P2;PMS_P1;PMS_P2;Temp;Humidity;BMP_temperature;BMP_pressure;BME280_temperature;BME280_humidity;BME280_pressure;Samples;Min_cycle;Max_cycle;Signal;HPM_P1;HPM_P2
2021/08/17 00:00:43;;;;;;;5.20;4.50;;;16.80;98.50;;;;;;5016003;28;20222;-68
2021/08/17 00:03:10;;;;;;;6.13;5.40;;;16.70;98.70;;;;;;5014882;28;20666;-68
2021/08/17 00:05:37;;;;;;;4.60;3.97;;;16.60;97.70;;;;;;5015572;28;20171;-68
2021/08/17 00:08:03;;;;;;;6.07;5.00;;;16.50;97.90;;;;;;5015450;28;20426;-68
2021/08/17 00:10:29;;;;;;;5.83;4.07;;;16.50;99.60;;;;;;5015585;28;20410;-68
2021/08/17 00:12:55;;;;;;;6.67;4.90;;;16.60;98.50;;;;;;4997812;28;20412;-75
2021/08/17 00:15:21;;;;;;;6.33;5.07;;;16.50;97.90;;;;;;5028423;28;20192;-68
2021/08/17 00:17:47;;;;;;;7.63;3.97;;;16.30;98.10;;;;;;5035169;28;20254;-68
2021/08/17 00:20:13;;;;;;;4.30;3.50;;;16.30;99.90;;;;;;5034125;28;20220;-68
2021/08/17 00:22:39;;;;;;;6.60;3.97;;;16.40;98.90;;;;;;5035176;28;20189;-68
2021/08/17 00:25:07;;;;;;;7.73;4.27;;;16.40;99.20;;;;;;5034273;28;20408;-68
2021/08/17 00:27:33;;;;;;;10.80;4.07;;;16.40;99.20;;;;;;5017289;28;20455;-68
2021/08/17 00:29:59;;;;;;;4.73;3.90;;;16.40;98.60;;;;;;5033803;28;20749;-68
2021/08/17 00:32:25;;;;;;;15.60;3.90;;;16.40;99.90;;;;;;5035295;28;20500;-68
2021/08/17 00:34:51;;;;;;;4.63;3.90;;;16.40;99.40;;;;;;5035321;28;20413;-68
2021/08/17 00:37:18;;;;;;;3.83;3.30;;;16.40;99.90;;;;;;5034352;28;20478;-68
2021/08/17 00:39:44;;;;;;;7.73;3.50;;;16.40;99.70;;;;;;5035178;28;20904;-68
2021/08/17 00:42:11;;;;;;;9.93;4.33;;;16.40;99.10;;;;;;5034496;28;20459;-68
2021/08/17 00:44:37;;;;;;;4.97;3.40;;;16.40;98.50;;;;;;5035061;28;20178;-68
2021/08/17 00:47:03;;;;;;;5.93;4.00;;;16.50;98.80;;;;;;5034353;28;20554;-68
2021/08/17 00:49:29;;;;;;;5.30;4.30;;;16.40;98.50;;;;;;5026644;28;20464;-68
2021/08/17 00:51:58;;;;;;;6.33;4.57;;;16.30;99.10;;;;;;5014103;28;20422;-68
2021/08/17 00:54:24;;;;;;;8.80;5.07;;;16.30;99.10;;;;;;5015923;28;20464;-68
2021/08/17 00:56:51;;;;;;;9.40;4.13;;;16.30;99.70;;;;;;5015099;28;20458;-68
2021/08/17 00:59:17;;;;;;;7.93;4.33;;;16.30;99.90;;;;;;5014436;28;20685;-68
2021/08/17 01:01:43;;;;;;;5.83;4.80;;;16.20;99.40;;;;;;5014983;28;20443;-68
2021/08/17 01:04:09;;;;;;;7.07;4.87;;;16.20;99.90;;;;;;5014397;28;20438;-68
2021/08/17 01:06:35;;;;;;;4.67;4.27;;;16.20;99.90;;;;;;5014555;28;20218;-68
2021/08/17 01:09:01;;;;;;;6.70;4.53;;;16.20;99.90;;;;;;5020805;28;20431;-68
2021/08/17 01:11:27;;;;;;;7.03;4.80;;;16.30;99.90;;;;;;5034571;28;20412;-68
2021/08/17 01:13:53;;;;;;;5.10;4.60;;;16.30;99.90;;;;;;5034578;28;20173;-68
2021/08/17 01:16:20;;;;;;;5.67;4.97;;;16.30;99.90;;;;;;5033906;28;20269;-68
2021/08/17 01:18:46;;;;;;;7.90;5.23;;;16.30;99.90;;;;;;5016541;28;20425;-68
2021/08/17 01:21:12;;;;;;;5.47;5.07;;;16.40;99.90;;;;;;5033793;28;20512;-68
2021/08/17 01:23:38;;;;;;;7.40;5.23;;;16.40;99.90;;;;;;5032659;28;20416;-68
2021/08/17 01:26:04;;;;;;;10.63;5.40;;;16.40;99.90;;;;;;5033599;28;20456;-70
2021/08/17 01:28:30;;;;;;;8.37;5.37;;;16.40;99.90;;;;;;5034275;28;20412;-68
2021/08/17 01:31:04;;;;;;;7.93;5.00;;;16.50;99.90;;;;;;5034174;28;20409;-68
2021/08/17 01:33:30;;;;;;;7.37;5.53;;;16.50;99.90;;;;;;5034272;28;20645;-68
2021/08/17 01:35:56;;;;;;;8.47;5.60;;;16.50;99.90;;;;;;5034123;28;20413;-68
2021/08/17 01:38:23;;;;;;;7.73;5.13;;;16.50;99.90;;;;;;5027623;28;20421;-68
2021/08/17 01:40:49;;;;;;;9.40;5.80;;;16.60;99.90;;;;;;5013971;28;20409;-68
2021/08/17 01:43:16;;;;;;;8.90;5.63;;;16.70;99.90;;;;;;5013584;28;20417;-68
2021/08/17 01:45:43;;;;;;;6.97;5.60;;;16.60;99.90;;;;;;5014122;28;20412;-68
2021/08/17 01:48:11;;;;;;;11.07;6.13;;;16.60;99.60;;;;;;5013119;28;20485;-68
2021/08/17 01:50:37;;;;;;;6.37;5.67;;;16.70;99.90;;;;;;5014801;28;20461;-68
2021/08/17 01:53:04;;;;;;;7.93;5.57;;;16.70;99.90;;;;;;5013473;28;20825;-69
2021/08/17 01:55:29;;;;;;;7.53;5.23;;;16.70;99.90;;;;;;5013933;28;20402;-68
2021/08/17 01:57:56;;;;;;;5.60;4.50;;;16.60;99.90;;;;;;5013993;28;20398;-68
2021/08/17 02:00:21;;;;;;;8.67;5.27;;;16.60;99.80;;;;;;5013345;28;20187;-68
2021/08/17 02:02:47;;;;;;;6.87;4.80;;;16.60;99.90;;;;;;5013661;28;20398;-68
2021/08/17 02:05:13;;;;;;;6.40;5.03;;;16.60;99.90;;;;;;5018720;28;20174;-68
2021/08/17 02:07:39;;;;;;;8.60;5.30;;;16.60;99.40;;;;;;5033518;28;20217;-68
2021/08/17 02:10:05;;;;;;;9.00;6.30;;;16.60;99.90;;;;;;5015165;28;20185;-68
2021/08/17 02:12:31;;;;;;;7.33;5.40;;;16.60;99.90;;;;;;5032895;28;20542;-68
2021/08/17 02:14:57;;;;;;;13.77;5.90;;;16.60;99.90;;;;;;5033346;28;20397;-68
2021/08/17 02:17:22;;;;;;;5.70;5.10;;;16.60;99.90;;;;;;5032735;28;20182;-68
2021/08/17 02:19:48;;;;;;;7.07;5.57;;;16.60;99.90;;;;;;5033020;28;20209;-68
2021/08/17 02:22:14;;;;;;;9.57;6.40;;;16.50;99.80;;;;;;5032600;28;20258;-69
2021/08/17 02:24:40;;;;;;;8.60;5.53;;;16.50;99.90;;;;;;5031461;28;20192;-68
2021/08/17 02:27:07;;;;;;;6.13;5.53;;;16.50;99.90;;;;;;5012819;28;20245;-69
2021/08/17 02:29:32;;;;;;;7.33;6.63;;;16.50;99.90;;;;;;5013446;28;20401;-68
2021/08/17 02:31:58;;;;;;;13.90;8.37;;;16.50;99.90;;;;;;5013346;28;20420;-68
2021/08/17 02:34:24;;;;;;;8.50;7.60;;;16.40;99.90;;;;;;5012710;28;20182;-68
2021/08/17 02:36:49;;;;;;;10.77;7.57;;;16.40;99.90;;;;;;5013582;28;20190;-68
2021/08/17 02:39:15;;;;;;;10.73;8.67;;;16.40;99.90;;;;;;5012580;28;20584;-68
2021/08/17 02:41:40;;;;;;;9.10;8.30;;;16.30;99.90;;;;;;5013332;28;20167;-68
2021/08/17 02:44:06;;;;;;;12.53;9.10;;;16.30;99.90;;;;;;5012387;28;20170;-68
2021/08/17 02:46:32;;;;;;;11.70;9.10;;;16.30;99.90;;;;;;5044953;28;20552;-68
2021/08/17 02:48:58;;;;;;;15.47;9.60;;;16.20;99.90;;;;;;5052507;28;20271;-68
2021/08/17 02:51:23;;;;;;;13.10;9.20;;;16.30;99.90;;;;;;5052175;28;20429;-68
2021/08/17 02:53:49;;;;;;;11.50;8.60;;;16.30;99.90;;;;;;5052677;28;20201;-68
2021/08/17 02:56:14;;;;;;;9.63;8.43;;;16.20;99.90;;;;;;5052078;28;20181;-68
2021/08/17 02:58:40;;;;;;;15.30;9.60;;;16.30;99.90;;;;;;5052690;28;20199;-69
2021/08/17 03:01:06;;;;;;;11.23;9.90;;;16.30;99.90;;;;;;5051961;28;20200;-69
2021/08/17 03:03:31;;;;;;;15.20;10.03;;;16.30;99.90;;;;;;5052314;28;20188;-68
2021/08/17 03:05:57;;;;;;;12.43;10.17;;;16.30;99.90;;;;;;5035509;28;20620;-68
2021/08/17 03:08:23;;;;;;;14.93;10.90;;;16.30;99.90;;;;;;5032107;28;20653;-68
2021/08/17 03:10:49;;;;;;;16.23;11.63;;;16.30;99.90;;;;;;5027596;28;20641;-68
2021/08/17 03:13:14;;;;;;;16.63;11.63;;;16.30;99.90;;;;;;5012260;28;20634;-68
2021/08/17 03:15:40;;;;;;;15.13;12.20;;;16.30;99.90;;;;;;5018579;28;20183;-68
2021/08/17 03:18:08;;;;;;;16.87;13.13;;;16.30;99.90;;;;;;5028895;28;20238;-71
2021/08/17 03:20:35;;;;;;;16.30;12.20;;;16.20;99.90;;;;;;5057769;28;20185;-68
2021/08/17 03:23:02;;;;;;;18.43;12.93;;;16.20;99.90;;;;;;5058745;28;20414;-68
2021/08/17 03:25:28;;;;;;;16.47;12.77;;;16.20;99.90;;;;;;5045560;28;20432;-68
2021/08/17 03:27:55;;;;;;;21.37;13.20;;;16.30;99.90;;;;;;5039069;28;20468;-68
2021/08/17 03:30:23;;;;;;;20.30;14.87;;;16.20;99.90;;;;;;5036601;28;20231;-70
2021/08/17 03:32:49;;;;;;;19.27;13.10;;;16.20;99.90;;;;;;5025359;28;20516;-68
2021/08/17 03:35:15;;;;;;;20.77;13.90;;;16.20;99.90;;;;;;5018617;28;20463;-68
2021/08/17 03:37:41;;;;;;;19.67;14.20;;;16.20;99.90;;;;;;5019105;28;20788;-68
2021/08/17 03:40:14;;;;;;;20.70;13.17;;;16.20;99.90;;;;;;5018487;28;20433;-71
2021/08/17 03:42:40;;;;;;;27.93;14.43;;;16.20;99.90;;;;;;5019133;28;20866;-68
2021/08/17 03:45:08;;;;;;;20.00;15.43;;;16.20;99.90;;;;;;5028570;28;20423;-68
2021/08/17 03:47:34;;;;;;;19.23;13.90;;;16.30;99.90;;;;;;5021116;28;20213;-68
2021/08/17 03:50:00;;;;;;;25.93;16.30;;;16.30;99.90;;;;;;5039053;28;20469;-68
2021/08/17 03:52:26;;;;;;;19.37;14.57;;;16.30;99.90;;;;;;5038186;28;20281;-68
2021/08/17 03:54:52;;;;;;;18.67;13.77;;;16.30;99.90;;;;;;5038860;28;20408;-68
2021/08/17 03:57:18;;;;;;;24.00;16.43;;;16.30;99.90;;;;;;5038196;28;20812;-69
2021/08/17 03:59:43;;;;;;;22.33;14.30;;;16.40;99.90;;;;;;5038465;28;20185;-68
2021/08/17 04:02:09;;;;;;;20.23;14.87;;;16.40;99.90;;;;;;5038135;28;20256;-69
2021/08/17 04:04:35;;;;;;;21.80;13.53;;;16.40;99.90;;;;;;5031686;28;20433;-68
2021/08/17 04:07:00;;;;;;;22.97;14.93;;;16.50;99.90;;;;;;5018806;28;20233;-68
2021/08/17 04:09:26;;;;;;;18.57;13.20;;;16.60;99.90;;;;;;5017939;28;20171;-69
2021/08/17 04:11:52;;;;;;;21.20;14.57;;;16.60;99.90;;;;;;5026947;28;20541;-68
2021/08/17 04:14:17;;;;;;;22.83;15.70;;;16.50;99.90;;;;;;5038023;28;20185;-68
2021/08/17 04:16:43;;;;;;;26.57;14.90;;;16.50;99.90;;;;;;5038256;28;20699;-68
2021/08/17 04:19:09;;;;;;;18.83;14.00;;;16.50;99.90;;;;;;5038223;28;20174;-76
2021/08/17 04:21:35;;;;;;;24.57;14.67;;;16.60;99.90;;;;;;5038576;28;20185;-69
2021/08/17 04:24:00;;;;;;;18.97;14.30;;;16.50;99.90;;;;;;5035315;28;20182;-68
2021/08/17 04:26:26;;;;;;;21.57;12.50;;;16.50;99.90;;;;;;5016160;28;20209;-68
2021/08/17 04:28:53;;;;;;;21.20;14.33;;;16.50;99.90;;;;;;5015660;28;20243;-68
2021/08/17 04:31:19;;;;;;;22.60;13.77;;;16.60;99.90;;;;;;5014986;28;20496;-69
2021/08/17 04:33:45;;;;;;;25.90;14.47;;;16.60;99.90;;;;;;5015534;28;20402;-68
2021/08/17 04:36:12;;;;;;;19.17;12.50;;;16.60;99.90;;;;;;5014587;28;20413;-69
2021/08/17 04:38:37;;;;;;;16.93;10.77;;;16.60;99.90;;;;;;4997987;28;20394;-68
2021/08/17 04:41:03;;;;;;;17.90;12.80;;;16.50;99.90;;;;;;4997928;28;20398;-68
2021/08/17 04:43:29;;;;;;;19.27;12.50;;;16.60;99.90;;;;;;5014757;28;20181;-68
2021/08/17 04:45:54;;;;;;;18.07;11.47;;;16.60;99.90;;;;;;5015844;28;20531;-68
2021/08/17 04:48:20;;;;;;;19.83;13.57;;;16.60;99.90;;;;;;5026918;28;20186;-68
2021/08/17 04:50:47;;;;;;;19.30;15.10;;;16.60;99.90;;;;;;5017632;28;20261;-68
2021/08/17 04:53:13;;;;;;;20.50;13.40;;;16.70;99.90;;;;;;5034312;28;20178;-69
2021/08/17 04:55:38;;;;;;;20.63;13.87;;;16.70;99.90;;;;;;5034914;28;20412;-68
2021/08/17 04:58:05;;;;;;;20.90;13.87;;;16.70;99.90;;;;;;5034863;28;20436;-68
2021/08/17 05:00:31;;;;;;;22.33;14.30;;;16.70;99.90;;;;;;5033779;28;20310;-68
2021/08/17 05:02:57;;;;;;;16.93;13.70;;;16.70;99.90;;;;;;5034494;28;20426;-68
2021/08/17 05:05:24;;;;;;;19.20;11.53;;;16.70;99.90;;;;;;5033802;28;20907;-69
2021/08/17 05:07:51;;;;;;;21.80;13.50;;;16.80;99.90;;;;;;5034760;28;20971;-69
2021/08/17 05:10:19;;;;;;;28.03;14.23;;;16.80;99.90;;;;;;5033861;28;20408;-69
2021/08/17 05:12:45;;;;;;;19.20;13.57;;;16.80;99.90;;;;;;5034581;28;20401;-68
2021/08/17 05:15:12;;;;;;;17.50;12.00;;;16.80;99.90;;;;;;5034926;28;20413;-68
2021/08/17 05:17:38;;;;;;;17.93;12.90;;;16.80;99.90;;;;;;5029650;28;20421;-68
2021/08/17 05:20:06;;;;;;;18.03;12.63;;;16.80;99.90;;;;;;5025305;28;20420;-68
2021/08/17 05:22:32;;;;;;;21.13;12.83;;;16.90;99.90;;;;;;5033799;28;20416;-68
2021/08/17 05:24:57;;;;;;;16.47;11.27;;;16.90;99.90;;;;;;5016187;28;20417;-68
2021/08/17 05:27:23;;;;;;;15.90;11.07;;;17.00;99.90;;;;;;5013854;28;20215;-68
2021/08/17 05:29:52;;;;;;;14.80;11.60;;;16.90;99.90;;;;;;5014118;28;20410;-68
2021/08/17 05:32:18;;;;;;;18.83;12.10;;;16.90;99.90;;;;;;5013697;28;20631;-68
2021/08/17 05:34:44;;;;;;;17.87;13.20;;;16.90;99.90;;;;;;5014426;28;20882;-68
2021/08/17 05:37:10;;;;;;;18.53;11.07;;;17.00;99.90;;;;;;5032063;28;20419;-68
2021/08/17 05:39:35;;;;;;;16.70;11.70;;;17.00;99.90;;;;;;5033459;28;20174;-68
2021/08/17 05:42:01;;;;;;;15.30;10.40;;;17.00;99.90;;;;;;5033714;28;20178;-68
2021/08/17 05:44:27;;;;;;;14.17;11.80;;;17.00;99.90;;;;;;5033164;28;20176;-68
2021/08/17 05:46:53;;;;;;;18.63;11.13;;;17.10;99.90;;;;;;5033824;28;20229;-68
2021/08/17 05:49:18;;;;;;;18.90;11.37;;;17.20;99.90;;;;;;5033087;28;20218;-69
2021/08/17 05:51:44;;;;;;;18.00;11.83;;;17.20;99.90;;;;;;5033556;28;20182;-68
2021/08/17 05:54:10;;;;;;;16.80;11.73;;;17.20;99.90;;;;;;5033762;28;20610;-68
2021/08/17 05:56:35;;;;;;;19.77;13.90;;;17.30;99.90;;;;;;5033668;28;20178;-68
2021/08/17 05:59:01;;;;;;;27.80;18.50;;;17.30;99.90;;;;;;5023936;28;20582;-69
2021/08/17 06:01:26;;;;;;;18.27;12.70;;;17.20;99.90;;;;;;5013599;28;20229;-68
2021/08/17 06:03:54;;;;;;;21.03;14.53;;;17.20;99.90;;;;;;5016913;28;20253;-68
2021/08/17 06:06:20;;;;;;;23.13;14.90;;;17.20;99.90;;;;;;5031105;28;20205;-71
2021/08/17 06:08:45;;;;;;;19.10;13.10;;;17.20;99.90;;;;;;5022188;28;20421;-69
2021/08/17 06:11:11;;;;;;;21.10;15.07;;;17.30;99.90;;;;;;5033517;28;20183;-69
2021/08/17 06:13:37;;;;;;;21.60;15.37;;;17.50;99.90;;;;;;5017980;28;20537;-69
2021/08/17 06:16:03;;;;;;;19.40;14.83;;;17.80;99.90;;;;;;5013512;28;20171;-69
2021/08/17 06:18:29;;;;;;;19.40;14.40;;;18.10;99.90;;;;;;5013107;28;20179;-69
2021/08/17 06:20:54;;;;;;;19.13;16.03;;;18.30;99.90;;;;;;5013598;28;20425;-69
2021/08/17 06:23:20;;;;;;;19.13;14.67;;;18.40;99.90;;;;;;5012949;28;20167;-69
2021/08/17 06:25:46;;;;;;;23.33;17.17;;;18.60;99.90;;;;;;5028095;28;20254;-68
2021/08/17 06:28:13;;;;;;;22.93;17.20;;;18.70;99.90;;;;;;5032995;28;20614;-69
2021/08/17 06:30:40;;;;;;;24.93;15.90;;;18.70;99.90;;;;;;5032253;28;20633;-69
2021/08/17 06:33:06;;;;;;;23.27;16.37;;;18.90;99.90;;;;;;5032165;28;20416;-69
2021/08/17 06:35:32;;;;;;;15.90;13.17;;;19.10;99.90;;;;;;5031531;28;20421;-69
2021/08/17 06:37:58;;;;;;;22.50;15.73;;;19.20;99.90;;;;;;5032163;28;20761;-69
2021/08/17 06:40:26;;;;;;;17.70;14.80;;;19.20;98.70;;;;;;5031633;28;20405;-69
2021/08/17 06:42:52;;;;;;;19.50;15.60;;;19.40;99.70;;;;;;5032527;28;20428;-69
2021/08/17 06:45:18;;;;;;;17.67;14.00;;;19.40;99.50;;;;;;5029430;28;20421;-69
2021/08/17 06:47:53;;;;;;;18.50;14.27;;;19.50;99.80;;;;;;5031637;28;20452;-67
2021/08/17 06:50:19;;;;;;;19.03;14.97;;;19.50;99.90;;;;;;5031478;28;21020;-67
2021/08/17 06:52:45;;;;;;;22.77;17.73;;;19.40;97.80;;;;;;5026433;28;20433;-67
2021/08/17 06:55:12;;;;;;;15.10;13.60;;;19.20;97.90;;;;;;5025927;28;20425;-67
2021/08/17 06:57:38;;;;;;;16.47;14.50;;;19.10;99.90;;;;;;5031989;28;20475;-67
2021/08/17 07:00:09;;;;;;;16.20;12.53;;;19.20;99.40;;;;;;5013290;28;20513;-66
2021/08/17 07:02:36;;;;;;;16.30;14.33;;;19.30;99.60;;;;;;5012562;28;20461;-68
2021/08/17 07:05:03;;;;;;;20.00;15.63;;;19.40;99.10;;;;;;5013887;28;20943;-67
2021/08/17 07:07:29;;;;;;;21.30;14.43;;;19.50;99.90;;;;;;5009035;28;20502;-67
2021/08/17 07:09:54;;;;;;;14.50;13.00;;;19.60;99.90;;;;;;5023161;28;20513;-67
2021/08/17 07:12:20;;;;;;;17.80;15.43;;;19.80;99.90;;;;;;5012215;28;20182;-68
2021/08/17 07:14:46;;;;;;;16.73;13.67;;;19.90;99.30;;;;;;5012862;28;20182;-67
2021/08/17 07:17:12;;;;;;;18.57;15.70;;;19.70;98.60;;;;;;5014990;28;20183;-68
2021/08/17 07:19:37;;;;;;;21.33;14.77;;;19.80;99.90;;;;;;5022381;28;20205;-68
2021/08/17 07:22:03;;;;;;;16.90;13.60;;;19.70;98.80;;;;;;5016966;28;20186;-67
2021/08/17 07:24:29;;;;;;;21.80;16.53;;;19.80;99.90;;;;;;5018692;28;20207;-67
2021/08/17 07:26:56;;;;;;;19.50;15.90;;;19.80;98.80;;;;;;5041574;28;20449;-66
2021/08/17 07:29:22;;;;;;;22.80;16.00;;;19.60;98.60;;;;;;5025160;28;20182;-67
2021/08/17 07:31:47;;;;;;;15.90;13.63;;;19.50;99.70;;;;;;5016554;28;20806;-66
2021/08/17 07:34:13;;;;;;;20.20;14.60;;;19.40;99.90;;;;;;5012577;28;20410;-67
2021/08/17 07:36:39;;;;;;;18.80;15.20;;;19.40;99.70;;;;;;5028515;28;20397;-67
2021/08/17 07:39:06;;;;;;;26.30;18.50;;;19.40;99.90;;;;;;5032410;28;20182;-66
2021/08/17 07:41:33;;;;;;;24.60;19.47;;;19.20;99.50;;;;;;5031798;28;20177;-66
2021/08/17 07:43:59;;;;;;;24.90;17.17;;;19.00;99.90;;;;;;5032280;28;20401;-65
2021/08/17 07:46:25;;;;;;;22.23;16.60;;;19.00;99.90;;;;;;5023998;28;20857;-65
2021/08/17 07:48:51;;;;;;;24.00;17.67;;;18.80;99.90;;;;;;5021475;28;20464;-65
2021/08/17 07:51:17;;;;;;;25.73;18.27;;;18.70;99.90;;;;;;5016073;28;20759;-65
2021/08/17 07:53:43;;;;;;;23.77;17.40;;;18.60;99.90;;;;;;5013145;28;20426;-65
2021/08/17 07:56:09;;;;;;;26.33;17.10;;;18.50;99.90;;;;;;5022690;28;20697;-65
2021/08/17 07:58:35;;;;;;;25.67;17.47;;;18.40;99.90;;;;;;5011576;28;20175;-64
2021/08/17 08:01:01;;;;;;;22.63;15.90;;;18.40;99.90;;;;;;5029830;28;20512;-65
2021/08/17 08:03:26;;;;;;;24.43;17.33;;;18.30;99.90;;;;;;5035249;28;20170;-64
2021/08/17 08:05:52;;;;;;;24.37;15.87;;;18.30;99.90;;;;;;5035703;28;20174;-64
2021/08/17 08:08:18;;;;;;;27.53;17.17;;;18.20;99.90;;;;;;5033764;28;20262;-64
2021/08/17 08:10:43;;;;;;;23.20;16.10;;;18.20;99.90;;;;;;5025360;28;20202;-64
2021/08/17 08:13:09;;;;;;;27.27;17.67;;;18.20;99.90;;;;;;5015146;28;20237;-64
2021/08/17 08:15:35;;;;;;;25.30;18.97;;;18.10;99.90;;;;;;5014478;28;20171;-64
2021/08/17 08:18:01;;;;;;;24.20;17.50;;;18.10;99.90;;;;;;5015364;28;20270;-65
2021/08/17 08:20:26;;;;;;;27.67;18.07;;;18.10;99.90;;;;;;5014512;28;20623;-68
2021/08/17 08:22:52;;;;;;;22.60;17.77;;;18.00;99.90;;;;;;5015319;28;20262;-64
2021/08/17 08:25:18;;;;;;;24.87;17.30;;;18.00;99.90;;;;;;5023467;28;20190;-65
2021/08/17 08:27:46;;;;;;;24.83;18.07;;;18.10;99.90;;;;;;5031299;28;20210;-64
2021/08/17 08:30:13;;;;;;;26.97;16.87;;;18.10;99.90;;;;;;5015426;28;20398;-64
2021/08/17 08:32:39;;;;;;;22.80;16.63;;;18.00;99.90;;;;;;5014921;28;20410;-64
2021/08/17 08:35:06;;;;;;;25.50;17.67;;;18.00;99.90;;;;;;5015525;28;20442;-64
2021/08/17 08:37:32;;;;;;;24.60;16.20;;;18.00;99.90;;;;;;5014537;28;20422;-65
2021/08/17 08:39:58;;;;;;;22.33;15.90;;;18.10;99.90;;;;;;5015376;28;20755;-64
2021/08/17 08:42:25;;;;;;;25.00;17.00;;;18.20;99.90;;;;;;5014383;28;20186;-68
2021/08/17 08:44:53;;;;;;;21.27;15.30;;;18.30;99.90;;;;;;5015660;28;20179;-64
2021/08/17 08:47:20;;;;;;;21.33;16.50;;;18.50;99.90;;;;;;5015163;28;20458;-64
2021/08/17 08:49:49;;;;;;;20.83;14.03;;;18.60;99.90;;;;;;5014483;28;20462;-64
2021/08/17 08:52:16;;;;;;;24.60;14.57;;;18.70;99.90;;;;;;5014924;28;20409;-64
2021/08/17 08:54:42;;;;;;;22.97;14.47;;;18.80;99.90;;;;;;5014512;28;20509;-64
2021/08/17 08:57:08;;;;;;;19.80;14.83;;;18.90;99.90;;;;;;5015114;28;20429;-64
2021/08/17 08:59:33;;;;;;;19.13;14.40;;;18.90;99.90;;;;;;5014536;28;20401;-64
2021/08/17 09:02:14;;;;;;;20.97;14.50;;;18.90;99.90;;;;;;5015118;28;20647;-64
2021/08/17 09:04:50;;;;;;;24.03;14.80;;;18.90;99.90;;;;;;5014379;28;20870;-64
2021/08/17 09:07:30;;;;;;;18.80;12.50;;;19.00;99.90;;;;;;5014601;28;20536;-64
2021/08/17 09:10:04;;;;;;;18.17;13.90;;;19.00;99.90;;;;;;5014965;28;20744;-64
2021/08/17 09:12:39;;;;;;;14.57;11.77;;;19.00;99.90;;;;;;5013430;28;20409;-65
2021/08/17 09:15:23;;;;;;;18.53;14.03;;;18.90;99.90;;;;;;5014494;28;20486;-64
2021/08/17 09:18:09;;;;;;;21.87;14.50;;;18.90;99.90;;;;;;5014223;28;20456;-64
2021/08/17 09:20:44;;;;;;;17.80;13.40;;;18.90;99.90;;;;;;5014152;28;20501;-64
2021/08/17 09:23:29;;;;;;;14.17;12.53;;;18.80;99.90;;;;;;5014774;28;20386;-64
2021/08/17 09:25:57;;;;;;;17.87;13.30;;;18.80;99.50;;;;;;5014452;28;20747;-64
2021/08/17 09:28:32;;;;;;;15.33;12.83;;;18.70;99.80;;;;;;5014531;28;20410;-64
2021/08/17 09:31:00;;;;;;;18.23;12.87;;;18.70;99.60;;;;;;5014466;28;20743;-64
2021/08/17 09:33:40;;;;;;;18.13;13.00;;;18.70;99.80;;;;;;5014127;28;20453;-68
2021/08/17 09:36:08;;;;;;;15.90;13.40;;;18.60;99.90;;;;;;5014167;28;20480;-64
2021/08/17 09:38:34;;;;;;;15.03;12.33;;;18.60;99.90;;;;;;5013476;28;20768;-65
2021/08/17 09:41:16;;;;;;;18.03;14.60;;;18.50;99.90;;;;;;5014281;28;20414;-64
2021/08/17 09:44:00;;;;;;;17.93;12.47;;;18.50;99.90;;;;;;5013717;28;20409;-64
2021/08/17 09:46:29;;;;;;;20.03;13.80;;;18.50;99.90;;;;;;5014245;28;20482;-64
2021/08/17 09:48:56;;;;;;;19.43;15.80;;;18.50;99.90;;;;;;5013919;28;20457;-65
2021/08/17 09:51:35;;;;;;;18.53;14.33;;;18.60;99.90;;;;;;5013915;28;20418;-64
2021/08/17 09:54:15;;;;;;;18.30;14.27;;;18.50;99.90;;;;;;4996558;28;20402;-64
2021/08/17 09:56:42;;;;;;;19.37;13.00;;;18.60;99.90;;;;;;5013291;28;20425;-64
2021/08/17 09:59:17;;;;;;;18.60;15.67;;;18.50;99.90;;;;;;5014135;28;20945;-64
2021/08/17 10:01:42;;;;;;;23.57;14.00;;;18.60;99.90;;;;;;5013392;28;20405;-64
2021/08/17 10:04:08;;;;;;;17.20;13.03;;;18.60;99.90;;;;;;5013916;28;20414;-64
2021/08/17 10:06:34;;;;;;;15.20;13.57;;;18.70;99.90;;;;;;5013095;28;20206;-64
2021/08/17 10:09:01;;;;;;;19.63;13.23;;;18.70;99.90;;;;;;5013851;28;20421;-64
2021/08/17 10:11:27;;;;;;;21.70;13.53;;;18.70;99.90;;;;;;5013845;28;20418;-64
2021/08/17 10:13:53;;;;;;;18.33;12.70;;;18.70;99.90;;;;;;5013421;28;20410;-64
2021/08/17 10:16:19;;;;;;;16.33;11.87;;;18.70;99.90;;;;;;5013504;28;20414;-64
2021/08/17 10:18:46;;;;;;;16.87;14.03;;;18.60;99.80;;;;;;5012655;28;20172;-64
2021/08/17 10:21:16;;;;;;;17.83;13.57;;;18.60;99.90;;;;;;5013594;28;20414;-64
2021/08/17 10:23:44;;;;;;;18.87;12.23;;;18.70;99.90;;;;;;5012870;28;20437;-64
2021/08/17 10:26:33;;;;;;;22.63;13.70;;;18.70;99.60;;;;;;5013272;28;20402;-64
2021/08/17 10:29:00;;;;;;;18.77;12.80;;;18.70;99.70;;;;;;5013770;28;20405;-65
2021/08/17 10:31:34;;;;;;;17.80;12.00;;;18.70;99.50;;;;;;5013423;28;20406;-64
2021/08/17 10:34:08;;;;;;;17.47;12.13;;;18.80;99.30;;;;;;5013127;28;20452;-64
2021/08/17 10:37:01;;;;;;;19.47;12.10;;;18.90;99.50;;;;;;5012845;28;20421;-65
2021/08/17 10:39:26;;;;;;;18.20;13.43;;;18.90;99.40;;;;;;4990171;28;20419;-64
2021/08/17 10:41:53;;;;;;;17.40;13.50;;;18.90;99.10;;;;;;5012702;28;20882;-64
2021/08/17 10:44:32;;;;;;;14.30;10.27;;;18.90;98.80;;;;;;5013334;28;20182;-64
2021/08/17 10:47:12;;;;;;;17.60;12.57;;;18.90;97.90;;;;;;5013285;28;20442;-64
2021/08/17 10:49:41;;;;;;;19.10;13.30;;;18.70;97.70;;;;;;5012215;28;20551;-64
2021/08/17 10:52:09;;;;;;;14.73;11.77;;;18.70;98.40;;;;;;5013080;28;20744;-64
2021/08/17 10:54:37;;;;;;;16.43;11.63;;;18.80;98.30;;;;;;4994866;28;20414;-65
2021/08/17 10:57:21;;;;;;;14.90;11.87;;;18.70;98.80;;;;;;4995709;28;20414;-64
2021/08/17 10:59:49;;;;;;;16.23;11.83;;;18.70;98.80;;;;;;5012475;28;20406;-64
2021/08/17 11:02:19;;;;;;;19.07;11.37;;;18.70;98.40;;;;;;5012937;28;20776;-64
2021/08/17 11:04:47;;;;;;;16.70;11.20;;;18.70;98.30;;;;;;5012467;28;20406;-64
2021/08/17 11:07:26;;;;;;;19.13;11.43;;;18.70;98.60;;;;;;5012995;28;20960;-64
2021/08/17 11:09:54;;;;;;;15.10;11.60;;;18.70;98.60;;;;;;5012261;28;20679;-64
2021/08/17 11:12:20;;;;;;;15.50;12.83;;;18.80;98.90;;;;;;5012707;28;20417;-64
2021/08/17 11:14:47;;;;;;;14.13;11.37;;;18.70;98.40;;;;;;5012293;28;20456;-64
2021/08/17 11:17:18;;;;;;;18.00;11.70;;;18.70;97.80;;;;;;5012828;28;20465;-64
2021/08/17 11:19:49;;;;;;;15.47;11.60;;;18.70;97.80;;;;;;5012009;28;20930;-64
2021/08/17 11:22:18;;;;;;;16.30;11.33;;;18.60;98.10;;;;;;5012782;28;20779;-64
2021/08/17 11:24:51;;;;;;;14.90;13.33;;;18.60;98.00;;;;;;5012206;28;20459;-64
2021/08/17 11:27:29;;;;;;;18.60;12.83;;;18.60;98.10;;;;;;5012792;28;20926;-64
2021/08/17 11:30:04;;;;;;;18.80;12.33;;;18.70;98.70;;;;;;5012173;28;20424;-64
2021/08/17 11:32:36;;;;;;;15.57;11.33;;;18.70;99.00;;;;;;5012782;28;20393;-64
2021/08/17 11:35:07;;;;;;;14.20;10.97;;;18.80;98.00;;;;;;5012783;28;20898;-64
2021/08/17 11:37:35;;;;;;;13.87;11.70;;;18.70;97.50;;;;;;5016843;28;20456;-64
2021/08/17 11:40:04;;;;;;;14.50;11.90;;;18.80;97.80;;;;;;5016271;28;20463;-64
2021/08/17 11:42:34;;;;;;;14.90;12.40;;;18.80;98.10;;;;;;5016571;28;20429;-64
2021/08/17 11:45:13;;;;;;;14.73;11.07;;;18.80;98.50;;;;;;5016555;28;20418;-64
2021/08/17 11:47:40;;;;;;;13.17;11.13;;;18.80;97.40;;;;;;5015866;28;20438;-65
2021/08/17 11:50:09;;;;;;;15.73;11.83;;;18.80;96.90;;;;;;5016493;28;20532;-64
2021/08/17 11:52:38;;;;;;;14.93;12.27;;;18.70;97.50;;;;;;5015448;28;20524;-65
2021/08/17 11:55:04;;;;;;;20.73;11.33;;;18.80;97.60;;;;;;5016231;28;20473;-64
2021/08/17 11:57:33;;;;;;;14.43;11.47;;;18.80;98.20;;;;;;5016315;28;21089;-65
2021/08/17 12:00:04;;;;;;;15.40;11.37;;;18.90;97.20;;;;;;5015670;28;20703;-64
2021/08/17 12:02:30;;;;;;;11.00;9.80;;;18.90;97.10;;;;;;5016230;28;20406;-64
2021/08/17 12:04:57;;;;;;;13.90;11.00;;;19.00;96.80;;;;;;5015279;28;20765;-64
2021/08/17 12:07:24;;;;;;;14.73;10.57;;;19.00;96.90;;;;;;5016004;28;20214;-64
2021/08/17 12:09:51;;;;;;;11.23;9.63;;;19.00;96.80;;;;;;5015446;28;20418;-64
2021/08/17 12:12:19;;;;;;;14.00;10.00;;;19.00;96.70;;;;;;5016153;28;20406;-65
2021/08/17 12:14:45;;;;;;;16.77;12.63;;;18.90;96.50;;;;;;5015481;28;20459;-65
2021/08/17 12:17:19;;;;;;;15.80;12.00;;;19.00;97.20;;;;;;5015903;28;20436;-65
2021/08/17 12:19:47;;;;;;;12.10;9.33;;;19.00;96.90;;;;;;5015034;28;20418;-65
2021/08/17 12:22:25;;;;;;;13.93;9.90;;;19.00;96.70;;;;;;5016113;28;20752;-65
2021/08/17 12:24:52;;;;;;;12.73;10.30;;;18.90;96.40;;;;;;5015183;28;20401;-65
2021/08/17 12:27:27;;;;;;;10.50;9.30;;;19.00;96.70;;;;;;5015680;28;20453;-65
2021/08/17 12:29:54;;;;;;;9.83;8.83;;;19.00;96.20;;;;;;5015028;28;20441;-65
2021/08/17 12:32:25;;;;;;;12.23;9.87;;;18.90;96.00;;;;;;5015280;28;20472;-65